createdAt,value
2023-11-16T00:04:02.018Z,20.4
2023-11-16T00:09:38.647Z,20
2023-11-16T00:15:30.876Z,19.9
2023-11-16T00:21:07.691Z,19.7
2023-11-16T00:26:27.923Z,19.6
2023-11-16T00:32:04.048Z,19.4
2023-11-16T00:37:41.087Z,19.3
2023-11-16T00:43:17.168Z,19.3
2023-11-16T00:49:09.376Z,19.1
2023-11-16T00:55:01.256Z,21.1
2023-11-16T01:00:52.197Z,20.8
2023-11-16T01:06:44.979Z,20.1
2023-11-16T01:12:36.793Z,19.8
2023-11-16T01:18:28.818Z,19.7
2023-11-16T01:24:23.471Z,19.6
2023-11-16T01:30:15.953Z,19.4
2023-11-16T01:35:51.628Z,19.3
2023-11-16T01:41:43.537Z,19.2
2023-11-16T01:47:35.735Z,20.5
2023-11-16T01:53:27.348Z,21.3
2023-11-16T01:58:47.933Z,20.2
2023-11-16T02:04:44.445Z,19.9
2023-11-16T02:10:35.501Z,19.7
2023-11-16T02:16:11.644Z,19.6
2023-11-16T02:21:48.630Z,19.4
2023-11-16T02:27:39.919Z,19.3
2023-11-16T02:33:19.727Z,19.2
2023-11-16T02:39:11.475Z,19.7
2023-11-16T02:45:02.572Z,21.6
2023-11-16T02:50:55.553Z,20.4
2023-11-16T02:56:47.615Z,19.9
2023-11-16T03:02:39.757Z,19.7
2023-11-16T03:08:40.359Z,19.5
2023-11-16T03:14:32.446Z,19.4
2023-11-16T03:20:24.079Z,19.3
2023-11-16T03:26:15.234Z,19.1
2023-11-16T03:32:12.594Z,20.5
2023-11-16T03:38:03.481Z,21.3
2023-11-16T03:43:54.600Z,20.1
2023-11-16T03:49:47.868Z,19.8
2023-11-16T03:55:39.531Z,19.6
2023-11-16T04:01:31.314Z,19.4
2023-11-16T04:07:24.441Z,19.3
2023-11-16T04:13:04.586Z,19.1
2023-11-16T04:18:56.722Z,19.4
2023-11-16T04:24:49.142Z,21.3
2023-11-16T04:30:41.172Z,20.5
2023-11-16T04:36:17.156Z,19.9
2023-11-16T04:41:53.671Z,19.6
2023-11-16T04:47:45.527Z,19.5
2023-11-16T04:53:37.544Z,19.3
2023-11-16T04:59:30.522Z,19.2
2023-11-16T05:05:24.832Z,19.1
2023-11-16T05:11:18.971Z,21
2023-11-16T05:17:13.602Z,20.9
2023-11-16T05:23:05.436Z,19.9
2023-11-16T05:28:57.073Z,19.6
2023-11-16T05:34:34.525Z,19.5
2023-11-16T05:40:11.661Z,19.3
2023-11-16T05:46:03.927Z,19.2
2023-11-16T05:51:57.857Z,19.1
2023-11-16T05:57:49.188Z,20.7
2023-11-16T06:03:42.243Z,21.1
2023-11-16T06:09:35.288Z,20
2023-11-16T06:15:40.396Z,19.6
2023-11-16T06:21:31.933Z,19.5
2023-11-16T06:27:24.187Z,19.3
2023-11-16T06:33:16.362Z,19.2
2023-11-16T06:39:09.319Z,19.4
2023-11-16T06:45:01.306Z,21.3
2023-11-16T06:50:39.440Z,20.5
2023-11-16T06:56:18.229Z,19.7
2023-11-16T07:01:55.346Z,19.5
2023-11-16T07:07:48.292Z,19.3
2023-11-16T07:13:40.165Z,19.2
2023-11-16T07:19:42.106Z,19.1
2023-11-16T07:25:35.038Z,18.9
2023-11-16T07:31:27.165Z,18.8
2023-11-16T07:42:55.261Z,20.6
2023-11-16T07:48:31.055Z,20.3
2023-11-16T07:54:23.254Z,19.6
2023-11-16T08:00:17.825Z,19.4
2023-11-16T08:06:10.405Z,19.3
2023-11-16T08:12:07.509Z,19.1
2023-11-16T08:18:00.009Z,18.9
2023-11-16T08:24:05.998Z,18.8
2023-11-16T08:29:43.114Z,18.8
2023-11-16T08:35:36.466Z,20.2
2023-11-16T08:41:28.509Z,20.5
2023-11-16T08:46:50.912Z,19.7
2023-11-16T08:52:46.796Z,19.4
2023-11-16T08:58:50.545Z,19.3
2023-11-16T09:04:45.168Z,19.1
2023-11-16T09:10:22.992Z,19
2023-11-16T09:16:16.524Z,18.8
2023-11-16T09:27:28.481Z,18.6
2023-11-16T09:33:32.678Z,18.6
2023-11-16T09:39:37.650Z,18.4
2023-11-16T09:45:14.697Z,18.3
2023-11-16T09:50:51.271Z,18.3
2023-11-16T09:56:53.630Z,18.2
2023-11-16T10:02:47.098Z,20.5
2023-11-16T10:08:24.427Z,20.3
2023-11-16T10:14:19.779Z,19.5
2023-11-16T10:19:58.910Z,19.3
2023-11-16T10:25:53.376Z,19.1
2023-11-16T10:31:48.210Z,19
2023-11-16T10:37:45.987Z,18.9
2023-11-16T10:43:37.693Z,18.8
2023-11-16T10:49:16.211Z,18.6
2023-11-16T10:55:08.622Z,18.6
2023-11-16T11:01:03.613Z,18.5
2023-11-16T11:06:58.996Z,18.4
2023-11-16T11:12:51.119Z,18.6
2023-11-16T11:18:44.510Z,21.1
2023-11-16T11:24:37.973Z,20
2023-11-16T11:30:30.199Z,19.5
2023-11-16T11:36:35.300Z,19.3
2023-11-16T11:42:28.200Z,19.1
2023-11-16T11:48:08.011Z,19
2023-11-16T11:54:01.220Z,18.9
2023-11-16T12:00:03.699Z,18.8
2023-11-16T12:11:45.763Z,18.6
2023-11-16T12:17:46.740Z,18.5
2023-11-16T12:23:39.022Z,18.4
2023-11-16T12:29:31.971Z,18.4
2023-11-16T12:35:25.076Z,19.3
2023-11-16T12:41:21.818Z,21
2023-11-16T12:47:21.698Z,19.8
2023-11-16T12:53:14.662Z,19.4
2023-11-16T12:58:35.687Z,19.2
2023-11-16T13:04:41.722Z,19.1
2023-11-16T13:10:20.048Z,19.1
2023-11-16T13:16:25.359Z,18.9
2023-11-16T13:22:02.120Z,18.8
2023-11-16T13:28:08.574Z,18.8
2023-11-16T13:33:45.997Z,18.6
2023-11-16T13:39:24.312Z,18.6
2023-11-16T13:45:19.424Z,18.5
2023-11-16T13:50:56.828Z,18.4
2023-11-16T13:56:01.400Z,19.6
2023-11-16T14:01:41.589Z,21.1
2023-11-16T14:07:19.674Z,20
2023-11-16T14:13:25.810Z,19.6
2023-11-16T14:19:33.179Z,19.4
2023-11-16T14:31:34.036Z,19.1
2023-11-16T14:37:36.139Z,19
2023-11-16T14:43:27.524Z,18.9
2023-11-16T14:49:17.800Z,18.8
2023-11-16T15:00:51.763Z,18.6
2023-11-16T15:07:00.216Z,18.6
2023-11-16T15:12:36.774Z,18.4
2023-11-16T15:18:42.127Z,18.4
2023-11-16T15:24:50.624Z,20.1
2023-11-16T15:30:59.692Z,20.7
2023-11-16T15:36:36.500Z,19.8
2023-11-16T15:42:27.796Z,19.5
2023-11-16T15:48:20.994Z,19.3
2023-11-16T15:54:16.071Z,19.2
2023-11-16T15:59:57.273Z,19.1
2023-11-16T16:05:54.815Z,18.9
2023-11-16T16:11:46.588Z,18.8
2023-11-16T16:22:59.400Z,18.6
2023-11-16T16:28:51.669Z,18.6
2023-11-16T16:34:46.123Z,18.4
2023-11-16T16:40:40.582Z,18.4
2023-11-16T16:46:32.437Z,18.3
2023-11-16T16:52:33.768Z,19.7
2023-11-16T16:58:28.201Z,20.9
2023-11-16T17:04:21.254Z,19.8
2023-11-16T17:10:12.758Z,19.5
2023-11-16T17:16:04.846Z,19.3
2023-11-16T17:21:41.284Z,19.2
2023-11-16T17:27:33.129Z,19.1
2023-11-16T17:33:25.461Z,18.9
2023-11-16T17:39:18.915Z,18.8
2023-11-16T17:50:18.201Z,18.6
2023-11-16T17:56:10.379Z,18.5
2023-11-16T18:02:02.459Z,18.4
2023-11-16T18:07:56.271Z,18.4
2023-11-16T18:13:47.846Z,18.3
2023-11-16T18:19:39.266Z,19.6
2023-11-16T18:25:30.454Z,21
2023-11-16T18:31:22.418Z,19.9
2023-11-16T18:37:14.823Z,19.6
2023-11-16T18:43:09.479Z,19.4
2023-11-16T18:49:05.862Z,19.3
2023-11-16T18:54:56.965Z,19
2023-11-16T19:00:33.215Z,18.9
2023-11-16T19:06:10.392Z,18.8
2023-11-16T19:17:39.543Z,18.6
2023-11-16T19:23:18.543Z,18.5
2023-11-16T19:28:58.294Z,18.4
2023-11-16T19:34:51.015Z,18.3
2023-11-16T19:41:04.398Z,18.3
2023-11-16T19:46:57.017Z,18.2
2023-11-16T19:53:00.121Z,20.1
2023-11-16T19:58:40.045Z,20.6
2023-11-16T20:04:36.118Z,19.8
2023-11-16T20:10:29.921Z,19.4
2023-11-16T20:16:22.693Z,19.3
2023-11-16T20:22:23.472Z,19.1
2023-11-16T20:28:00.500Z,18.9
2023-11-16T20:33:53.701Z,18.9
2023-11-16T20:39:45.501Z,20.5
2023-11-16T20:45:49.696Z,21.4
2023-11-16T20:51:28.735Z,20.1
2023-11-16T20:57:04.790Z,19.4
2023-11-16T21:02:43.957Z,19.1
2023-11-16T21:08:06.876Z,19
2023-11-16T21:13:44.072Z,18.9
2023-11-16T21:19:36.549Z,18.8
2023-11-16T21:25:28.524Z,20
2023-11-16T21:31:20.633Z,21.2
2023-11-16T21:36:58.097Z,20.3
2023-11-16T21:42:51.819Z,19.6
2023-11-16T21:48:44.068Z,19.2
2023-11-16T21:54:35.945Z,19
2023-11-16T22:00:29.976Z,18.9
2023-11-16T22:06:06.815Z,18.8
2023-11-16T22:11:59.816Z,19.7
2023-11-16T22:17:52.382Z,21.1
2023-11-16T22:23:29.425Z,20.5
2023-11-16T22:29:21.644Z,19.6
2023-11-16T22:35:13.363Z,19.2
2023-11-16T22:41:05.150Z,19.1
2023-11-16T22:46:57.421Z,18.9
2023-11-16T22:52:34.782Z,18.8
2023-11-16T22:58:27.070Z,19.1
2023-11-16T23:04:05.536Z,20.9
2023-11-16T23:10:01.181Z,20.7
2023-11-16T23:15:53.257Z,19.6
2023-11-16T23:21:55.011Z,19.3
2023-11-16T23:27:47.538Z,19.1
2023-11-16T23:33:40.517Z,18.9
2023-11-16T23:39:32.600Z,18.9
2023-11-16T23:50:47.148Z,20.4
